ESMK/KID METAR and TAF weather

Enter ICAO airport designator
Station Type Date Time Source
ESMK METAR 2019/04/26 03:50 UTC NOAA

ESMK 260350Z 28002KT 0100 R01/0275N R19/0375U FG VV002 01/01 Q1013


Station Type Date Time Source
ESMK Decoded METAR 2019/04/26 03:50 UTC NOAA

Kristianstad / Everod, Sweden (ESMK) 55-55N 014-05E
Apr 25, 2019 - 11:50 PM EDT / 2019.04.26 0350 UTC
Wind: from the W (280 degrees) at 2 MPH (2 KT):0
Visibility: less than 1 mile:0
Sky conditions: obscured
Weather: fog
Temperature: 33 F (1 C)
Dew Point: 33 F (1 C)
Relative Humidity: 100%
Pressure (altimeter): 29.91 in. Hg (1013 hPa)
ob: ESMK 260350Z 28002KT 0100 R01/0275N R19/0375U FG VV002 01/01 Q1013
cycle: 4

Station Type Date Time Source
ESMK TAF 2015/03/18 12:33 UTC NOAA

TAF ESMK 181130Z 1812/1824 13012KT CAVOK

Example: see airport list